Page, AZ

5:36 PM MDT on July 25, 2017 (GMT -0600)
Page Municipal | | Change Station
Active Advisory: Flash Flood Warning

Elev 4311 ft 36.93 °N, 111.45 °W | Updated 43 minutes ago

Mostly Cloudy
Mostly Cloudy
78 °F
Feels Like 78 °F
N
5
Wind Variable Wind from Variable

Today
High -- | Low -- °F
--% Chance of Precip.
Yesterday
High -- | Low -- °F
Precip. -- in
Pressure 29.93 in
Visibility 10.0 miles
Clouds Clear
Dew Point 66 °F
Humidity 66%
Rainfall 0.47 in
Snow Depth Not available.
6:25 AM 8:38 PM
Waxing Crescent, 9% visible
METAR KPGA 252253Z AUTO VRB04KT 10SM CLR 26/19 A3011 RMK AO2 RAE06 SLP135 P0000 T02560189 TSNO
Pressure 29.93 in
Visibility 10.0 miles
Clouds Clear
Dew Point 66 °F
Humidity 66%
Rainfall 0.47 in
Snow Depth Not available.
6:25 AM 8:38 PM
Waxing Crescent, 9% visible
METAR KPGA 252253Z AUTO VRB04KT 10SM CLR 26/19 A3011 RMK AO2 RAE06 SLP135 P0000 T02560189 TSNO

Get Your Daily Forecast Email!

Thanks for signing up!

Be on the lookout for a verification email in your inbox.

You'll start receiving severe weather alerts in your inbox..

×

10-Day Weather Forecast

Almanac

Astronomy

Jul. 25, 2017 Rise Set
Actual Time
Civil Twilight
Nautical Twilight
Astronomical Twilight
Moon
Length of Visible Light
Length of Day
Tomorrow will be .
, % of the Moon is Illuminated

Today's Extremes

State Highs State Lows

Community

WunderPhotos

Category 6

Welcome to Category 6. This is the collective home for Weather Underground's featured writeups by Dr. Jeff Masters (right), Bob Henson (left), Chris Burt, and other regular contributors.

Nearby

Air Quality

  Air Quality AQ Index Pollutant
Not available.

Snow Depth

Station Depth Elevation

Earthquake Activity

City Distance Mag. Time & Date
Minimum magnitude displayed is 2.5.

Coastal Water Temperatures

Place Temperature

Stations

Nearby Weather Stations

Station Location Temp. Windchill Dew Point Humidity Wind Precip. Elev Updated Type
                   

Watches & Warnings

Flash Flood Warning
Issued: 4:28 PM MDT Jul. 25, 2017 – National Weather Service

... The Flash Flood Warning remains in effect until 745 PM MST for
Coconino County...

At 425 PM MST, the river gauge at Lees Ferry at the confluence of the
Paria river and the Colorado River reported a stage of 6.2 feet.
This is about a 2 foot rise. Earlier heavy rain in southern Utah
will likely cause additional rises in water levels through Paria
Canyon this evening.

Some locations that will experience flooding include...
Lees Ferry.

This includes the following streams and drainages... Paria river and
Colorado River.

This includes U.S. Highway 89 near mile marker 556.

Precautionary/preparedness actions...

Move to higher ground now. Act quickly to protect your life.

Stay away or be swept away. River banks and culverts can become
unstable and unsafe.


Lat... Lon 3683 11160 3700 11202 3700 11155 3688 11153


Mct